createdAt,value
2019-02-05T00:01:43.635Z,99.90
2019-02-05T00:04:14.128Z,99.90
2019-02-05T00:06:44.586Z,99.90
2019-02-05T00:09:15.212Z,99.90
2019-02-05T00:11:45.677Z,99.90
2019-02-05T00:14:16.239Z,99.90
2019-02-05T00:16:46.733Z,99.90
2019-02-05T00:19:17.257Z,99.90
2019-02-05T00:21:47.748Z,99.90
2019-02-05T00:24:18.241Z,99.90
2019-02-05T00:26:48.734Z,99.90
2019-02-05T00:29:19.812Z,99.90
2019-02-05T00:31:50.295Z,99.90
2019-02-05T00:34:20.769Z,99.90
2019-02-05T00:36:51.259Z,99.90
2019-02-05T00:39:21.744Z,99.90
2019-02-05T00:41:52.206Z,99.90
2019-02-05T00:44:22.711Z,99.90
2019-02-05T00:46:53.168Z,99.90
2019-02-05T00:49:23.655Z,99.90
2019-02-05T00:51:54.122Z,99.90
2019-02-05T00:54:26.379Z,99.90
2019-02-05T00:56:56.843Z,99.90
2019-02-05T00:59:27.326Z,99.90
2019-02-05T01:01:57.847Z,99.90
2019-02-05T01:04:28.430Z,99.90
2019-02-05T01:06:58.959Z,99.90
2019-02-05T01:09:29.916Z,99.90
2019-02-05T01:12:00.482Z,99.90
2019-02-05T01:14:30.939Z,99.90
2019-02-05T01:17:01.444Z,99.90
2019-02-05T01:19:31.929Z,99.90
2019-02-05T01:22:02.451Z,99.90
2019-02-05T01:24:32.939Z,99.90
2019-02-05T01:27:03.422Z,99.90
2019-02-05T01:29:33.888Z,99.90
2019-02-05T01:32:05.905Z,99.90
2019-02-05T01:34:36.370Z,99.90
2019-02-05T01:37:06.875Z,99.90
2019-02-05T01:39:37.332Z,99.90
2019-02-05T01:42:07.813Z,99.90
2019-02-05T01:44:38.278Z,99.90
2019-02-05T01:47:08.762Z,99.90
2019-02-05T01:49:39.613Z,99.90
2019-02-05T01:52:11.025Z,99.90
2019-02-05T01:54:41.497Z,99.90
2019-02-05T01:57:12.002Z,99.90
2019-02-05T01:59:42.466Z,99.90
2019-02-05T02:02:13.399Z,99.90
2019-02-05T02:04:43.878Z,99.90
2019-02-05T02:07:14.530Z,99.90
2019-02-05T02:09:45.003Z,99.90
2019-02-05T02:12:15.458Z,99.90
2019-02-05T02:14:46.017Z,99.90
2019-02-05T02:17:16.649Z,99.90
2019-02-05T02:19:47.139Z,99.90
2019-02-05T02:22:17.667Z,99.90
2019-02-05T02:24:48.323Z,99.90
2019-02-05T02:27:18.804Z,99.90
2019-02-05T02:29:49.875Z,99.90
2019-02-05T02:32:20.307Z,99.90
2019-02-05T02:34:50.797Z,99.90
2019-02-05T02:37:21.283Z,99.90
2019-02-05T02:39:51.743Z,99.90
2019-02-05T02:42:22.224Z,99.90
2019-02-05T02:44:52.690Z,99.90
2019-02-05T02:47:23.192Z,99.90
2019-02-05T02:49:53.647Z,99.90
2019-02-05T02:52:24.130Z,99.90
2019-02-05T02:54:54.668Z,99.90
2019-02-05T02:57:25.533Z,99.90
2019-02-05T02:59:56.068Z,99.90
2019-02-05T03:02:26.560Z,99.90
2019-02-05T03:04:57.097Z,99.90
2019-02-05T03:07:27.582Z,99.90
2019-02-05T03:09:58.050Z,99.90
2019-02-05T03:12:28.905Z,99.90
2019-02-05T03:14:59.367Z,99.90
2019-02-05T03:17:29.934Z,99.90
2019-02-05T03:20:01.545Z,99.90
2019-02-05T03:22:32.858Z,99.90
2019-02-05T03:25:04.481Z,99.90
2019-02-05T03:27:35.195Z,99.90
2019-02-05T03:30:13.401Z,99.90
2019-02-05T03:32:44.044Z,99.90
2019-02-05T03:35:15.434Z,99.90
2019-02-05T03:37:45.992Z,99.90
2019-02-05T03:40:33.769Z,99.90
2019-02-05T03:43:04.295Z,99.90
2019-02-05T03:45:34.927Z,99.90
2019-02-05T03:48:06.522Z,99.90
2019-02-05T03:50:49.398Z,99.90
2019-02-05T03:53:32.965Z,99.90
2019-02-05T03:56:29.225Z,99.90
2019-02-05T03:59:19.304Z,99.90
2019-02-05T04:02:15.463Z,99.90
2019-02-05T04:05:26.398Z,99.90
2019-02-05T04:08:24.181Z,99.90
2019-02-05T04:11:08.041Z,99.90
2019-02-05T04:14:06.551Z,99.90
2019-02-05T04:17:04.248Z,99.90
2019-02-05T04:20:22.084Z,99.90
2019-02-05T04:23:23.710Z,99.90
2019-02-05T04:26:24.282Z,99.90
2019-02-05T04:29:18.859Z,99.90
2019-02-05T04:32:25.809Z,99.90
2019-02-05T04:35:36.002Z,99.90
2019-02-05T04:38:22.969Z,99.90
2019-02-05T04:41:27.914Z,99.90
2019-02-05T04:44:47.192Z,99.90
2019-02-05T04:47:34.252Z,99.90
2019-02-05T04:50:15.335Z,99.90
2019-02-05T04:53:12.941Z,99.90
2019-02-05T04:56:00.091Z,99.90
2019-02-05T04:58:43.947Z,99.90
2019-02-05T05:01:46.273Z,99.90
2019-02-05T05:04:38.648Z,99.90
2019-02-05T05:07:28.531Z,99.90
2019-02-05T05:09:59.460Z,99.90
2019-02-05T05:12:30.059Z,99.90
2019-02-05T05:15:00.735Z,99.90
2019-02-05T05:17:31.255Z,99.90
2019-02-05T05:20:01.731Z,99.90
2019-02-05T05:22:32.293Z,99.90
2019-02-05T05:25:02.923Z,99.90
2019-02-05T05:27:33.540Z,99.90
2019-02-05T05:30:08.645Z,99.90
2019-02-05T05:32:39.142Z,99.90
2019-02-05T05:35:10.840Z,99.90
2019-02-05T05:37:41.297Z,99.90
2019-02-05T05:40:12.398Z,99.90
2019-02-05T05:42:42.903Z,99.90
2019-02-05T05:45:14.894Z,99.90
2019-02-05T05:47:45.460Z,99.90
2019-02-05T05:50:16.572Z,99.90
2019-02-05T05:52:47.074Z,99.90
2019-02-05T05:55:17.536Z,99.90
2019-02-05T05:57:48.018Z,99.90
2019-02-05T06:00:20.455Z,99.90
2019-02-05T06:02:51.608Z,99.90
2019-02-05T06:05:22.509Z,99.90
2019-02-05T06:07:53.471Z,99.90
2019-02-05T06:10:23.983Z,99.90
2019-02-05T06:12:54.427Z,99.90
2019-02-05T06:15:24.914Z,99.90
2019-02-05T06:17:55.412Z,99.90
2019-02-05T06:20:25.951Z,99.90
2019-02-05T06:22:56.502Z,99.90
2019-02-05T06:25:27.036Z,99.90
2019-02-05T06:27:57.523Z,99.90
2019-02-05T06:30:27.985Z,99.90
2019-02-05T06:32:58.531Z,99.90
2019-02-05T06:35:29.130Z,99.90
2019-02-05T06:37:59.639Z,99.90
2019-02-05T06:40:31.268Z,99.90
2019-02-05T06:43:01.845Z,99.90
2019-02-05T06:45:32.480Z,99.90
2019-02-05T06:48:03.018Z,99.90
2019-02-05T06:50:35.448Z,99.90
2019-02-05T06:53:05.973Z,99.90
2019-02-05T06:55:36.490Z,99.90
2019-02-05T06:58:07.162Z,99.90
2019-02-05T07:00:37.645Z,99.90
2019-02-05T07:03:08.492Z,99.90
2019-02-05T07:05:39.355Z,99.90
2019-02-05T07:08:09.895Z,99.90
2019-02-05T07:10:40.365Z,99.90
2019-02-05T07:13:10.905Z,99.90
2019-02-05T07:15:41.395Z,99.90
2019-02-05T07:18:12.970Z,99.90
2019-02-05T07:20:44.585Z,99.90
2019-02-05T07:23:15.071Z,99.90
2019-02-05T07:25:45.562Z,99.90
2019-02-05T07:28:16.018Z,99.90
2019-02-05T07:30:46.524Z,99.90
2019-02-05T07:33:17.431Z,99.90
2019-02-05T07:35:47.928Z,99.90
2019-02-05T07:38:18.397Z,99.90
2019-02-05T07:40:48.940Z,99.90
2019-02-05T07:43:19.503Z,99.90
2019-02-05T07:45:51.362Z,99.90
2019-02-05T07:48:21.822Z,99.90
2019-02-05T07:50:53.961Z,99.90
2019-02-05T07:53:24.446Z,99.90
2019-02-05T07:55:54.939Z,99.90
2019-02-05T07:58:25.424Z,99.90
2019-02-05T08:00:56.025Z,99.90
2019-02-05T08:03:26.503Z,99.90
2019-02-05T08:05:57.257Z,99.90
2019-02-05T08:08:27.790Z,99.90
2019-02-05T08:10:58.288Z,99.90
2019-02-05T08:13:28.821Z,99.90
2019-02-05T08:16:00.248Z,99.90
2019-02-05T08:18:30.810Z,99.90
2019-02-05T08:21:01.304Z,99.90
2019-02-05T08:23:31.770Z,99.90
2019-02-05T08:26:02.253Z,99.90
2019-02-05T08:28:40.592Z,99.90
2019-02-05T08:31:04.960Z,99.90
2019-02-05T08:33:35.418Z,99.90
2019-02-05T08:36:06.423Z,99.90
2019-02-05T08:38:36.872Z,99.90
2019-02-05T08:41:07.781Z,99.90
2019-02-05T08:43:38.280Z,99.90
2019-02-05T08:46:08.736Z,99.90
2019-02-05T08:48:39.224Z,99.90
2019-02-05T08:51:10.056Z,99.90
2019-02-05T08:53:40.564Z,99.90
2019-02-05T08:56:11.182Z,99.90
2019-02-05T08:58:41.674Z,99.90
2019-02-05T09:01:14.480Z,99.90
2019-02-05T09:03:44.563Z,99.90
2019-02-05T09:06:17.160Z,99.90
2019-02-05T09:08:47.638Z,99.90
2019-02-05T09:11:18.093Z,99.90
2019-02-05T09:13:48.580Z,99.70
2019-02-05T09:16:19.087Z,99.60
2019-02-05T09:18:49.550Z,99.30
2019-02-05T09:21:20.313Z,98.70
2019-02-05T09:23:50.959Z,98.40
2019-02-05T09:26:21.393Z,98.60
2019-02-05T09:28:52.565Z,98.00
2019-02-05T09:31:24.102Z,97.70
2019-02-05T09:33:54.680Z,97.70
2019-02-05T09:36:25.217Z,97.10
2019-02-05T09:38:55.729Z,96.40
2019-02-05T09:41:26.220Z,95.30
2019-02-05T09:43:56.761Z,94.40
2019-02-05T09:46:28.270Z,94.00
2019-02-05T09:48:58.754Z,93.60
2019-02-05T09:51:29.232Z,93.10
2019-02-05T09:53:59.731Z,92.30
2019-02-05T09:56:30.232Z,90.60
2019-02-05T09:59:00.698Z,90.70
2019-02-05T10:01:36.227Z,90.20
2019-02-05T10:04:07.018Z,90.00
2019-02-05T10:06:37.567Z,86.70
2019-02-05T10:09:09.192Z,83.30
2019-02-05T10:11:39.725Z,82.00
2019-02-05T10:14:10.217Z,80.50
2019-02-05T10:16:40.717Z,77.30
2019-02-05T10:19:11.693Z,75.80
2019-02-05T10:21:42.221Z,72.60
2019-02-05T10:24:12.854Z,70.90
2019-02-05T10:26:43.379Z,68.30
2019-02-05T10:29:13.860Z,67.40
2019-02-05T10:31:44.317Z,66.30
2019-02-05T10:34:15.189Z,67.00
2019-02-05T10:36:45.835Z,70.40
2019-02-05T10:39:16.513Z,71.50
2019-02-05T10:41:47.249Z,67.70
2019-02-05T10:44:17.710Z,67.80
2019-02-05T10:46:48.277Z,68.70
2019-02-05T10:49:18.925Z,67.10
2019-02-05T10:51:49.403Z,64.10
2019-02-05T10:54:19.877Z,64.90
2019-02-05T10:56:50.370Z,64.70
2019-02-05T10:59:20.834Z,63.30
2019-02-05T11:01:52.080Z,63.10
2019-02-05T11:04:22.542Z,62.70
2019-02-05T11:06:53.102Z,62.70
2019-02-05T11:09:23.631Z,62.40
2019-02-05T11:11:54.136Z,60.80
2019-02-05T11:14:24.723Z,60.60
2019-02-05T11:16:55.190Z,61.60
2019-02-05T11:19:25.698Z,60.60
2019-02-05T11:21:56.155Z,62.50
2019-02-05T11:24:26.637Z,64.00
2019-02-05T11:26:57.130Z,65.80
2019-02-05T11:29:27.608Z,65.70
2019-02-05T11:31:58.159Z,62.00
2019-02-05T11:34:30.270Z,60.00
2019-02-05T11:37:00.761Z,57.10
2019-02-05T11:39:31.230Z,56.50
2019-02-05T11:42:01.722Z,56.30
2019-02-05T11:44:33.465Z,53.60
2019-02-05T11:47:04.886Z,52.00
2019-02-05T11:49:35.360Z,49.90
2019-02-05T11:52:09.746Z,49.70
2019-02-05T11:54:39.775Z,48.50
2019-02-05T11:57:10.342Z,46.80
2019-02-05T11:59:40.817Z,46.70
2019-02-05T12:02:11.741Z,46.90
2019-02-05T12:04:42.235Z,47.10
2019-02-05T12:07:12.758Z,46.70
2019-02-05T12:09:43.363Z,47.30
2019-02-05T12:12:14.771Z,48.00
2019-02-05T12:14:45.252Z,49.10
2019-02-05T12:17:16.287Z,49.10
2019-02-05T12:19:46.834Z,49.60
2019-02-05T12:22:17.835Z,51.00
2019-02-05T12:24:48.322Z,50.80
2019-02-05T12:27:20.313Z,52.20
2019-02-05T12:29:50.887Z,53.40
2019-02-05T12:32:23.158Z,53.20
2019-02-05T12:34:53.627Z,53.20
2019-02-05T12:37:24.210Z,52.80
2019-02-05T12:39:54.682Z,52.60
2019-02-05T12:42:25.251Z,52.00
2019-02-05T12:44:57.379Z,51.50
2019-02-05T12:47:27.927Z,52.10
2019-02-05T12:49:58.428Z,51.50
2019-02-05T12:52:28.896Z,51.40
2019-02-05T12:55:12.803Z,51.40
2019-02-05T12:57:31.642Z,51.60
2019-02-05T13:00:02.501Z,51.40
2019-02-05T13:02:33.052Z,50.60
2019-02-05T13:05:07.760Z,50.10
2019-02-05T13:07:38.241Z,49.70
2019-02-05T13:10:22.576Z,48.70
2019-02-05T13:12:53.207Z,48.40
2019-02-05T13:15:23.814Z,48.20
2019-02-05T13:17:54.323Z,47.60
2019-02-05T13:20:32.007Z,46.70
2019-02-05T13:23:04.584Z,46.90
2019-02-05T13:25:36.507Z,47.10
2019-02-05T13:28:09.786Z,47.30
2019-02-05T13:30:40.511Z,48.10
2019-02-05T13:33:13.796Z,47.20
2019-02-05T13:35:44.547Z,46.40
2019-02-05T13:38:15.116Z,46.50
2019-02-05T13:40:45.648Z,46.70
2019-02-05T13:43:16.306Z,46.50
2019-02-05T13:45:47.724Z,46.10
2019-02-05T13:48:18.231Z,46.60
2019-02-05T13:50:48.771Z,47.20
2019-02-05T13:53:19.288Z,48.10
2019-02-05T13:55:49.818Z,48.30
2019-02-05T13:58:21.289Z,49.20
2019-02-05T14:00:53.720Z,51.20
2019-02-05T14:03:24.351Z,52.10
2019-02-05T14:05:54.830Z,55.10
2019-02-05T14:08:25.600Z,56.40
2019-02-05T14:10:56.239Z,57.00
2019-02-05T14:13:26.752Z,58.30
2019-02-05T14:15:57.180Z,58.90
2019-02-05T14:18:27.741Z,59.80
2019-02-05T14:20:58.230Z,60.50
2019-02-05T14:23:30.962Z,61.90
2019-02-05T14:26:01.452Z,62.60
2019-02-05T14:28:32.088Z,64.00
2019-02-05T14:31:02.644Z,64.90
2019-02-05T14:33:33.224Z,65.60
2019-02-05T14:36:03.755Z,67.70
2019-02-05T14:38:34.217Z,68.90
2019-02-05T14:41:05.154Z,69.80
2019-02-05T14:43:35.689Z,68.90
2019-02-05T14:46:06.726Z,70.60
2019-02-05T14:48:37.186Z,71.50
2019-02-05T14:51:07.739Z,73.40
2019-02-05T14:53:38.199Z,75.70
2019-02-05T14:56:09.037Z,77.50
2019-02-05T14:58:39.482Z,79.10
2019-02-05T15:01:10.074Z,80.20
2019-02-05T15:03:40.606Z,80.70
2019-02-05T15:06:11.852Z,81.70
2019-02-05T15:08:45.128Z,85.80
2019-02-05T15:11:18.819Z,87.50
2019-02-05T15:13:49.293Z,88.30
2019-02-05T15:16:21.686Z,88.80
2019-02-05T15:18:55.055Z,89.10
2019-02-05T15:21:31.732Z,90.20
2019-02-05T15:24:03.067Z,91.00
2019-02-05T15:26:33.552Z,91.80
2019-02-05T15:29:04.114Z,92.40
2019-02-05T15:31:34.672Z,92.70
2019-02-05T15:34:05.505Z,92.90
2019-02-05T15:36:36.060Z,92.90
2019-02-05T15:39:11.495Z,93.10
2019-02-05T15:41:41.956Z,93.50
2019-02-05T15:44:12.527Z,93.90
2019-02-05T15:46:43.058Z,94.30
2019-02-05T15:49:13.541Z,94.60
2019-02-05T15:51:44.074Z,95.00
2019-02-05T15:54:14.646Z,95.40
2019-02-05T15:56:46.745Z,95.70
2019-02-05T15:59:17.328Z,95.70
2019-02-05T16:01:47.870Z,95.70
2019-02-05T16:04:18.364Z,95.80
2019-02-05T16:06:48.829Z,96.10
2019-02-05T16:09:19.398Z,96.10
2019-02-05T16:11:52.714Z,96.20
2019-02-05T16:14:23.172Z,96.40
2019-02-05T16:16:53.655Z,96.40
2019-02-05T16:19:24.160Z,96.30
2019-02-05T16:21:54.732Z,96.50
2019-02-05T16:24:25.190Z,96.50
2019-02-05T16:26:55.683Z,96.50
2019-02-05T16:29:26.156Z,96.70
2019-02-05T16:31:56.662Z,96.80
2019-02-05T16:34:27.130Z,96.90
2019-02-05T16:36:57.619Z,97.10
2019-02-05T16:39:28.450Z,97.20
2019-02-05T16:41:58.946Z,97.30
2019-02-05T16:44:29.447Z,97.50
2019-02-05T16:46:59.902Z,97.70
2019-02-05T16:49:30.394Z,98.00
2019-02-05T16:52:01.038Z,98.10
2019-02-05T16:54:31.603Z,98.20
2019-02-05T16:57:03.577Z,98.40
2019-02-05T16:59:34.371Z,98.40
2019-02-05T17:02:05.373Z,98.20
2019-02-05T17:04:35.874Z,98.60
2019-02-05T17:07:06.735Z,99.00
2019-02-05T17:09:37.237Z,99.10
2019-02-05T17:12:07.837Z,99.30
2019-02-05T17:14:40.804Z,99.10
2019-02-05T17:17:11.315Z,99.10
2019-02-05T17:19:43.400Z,99.20
2019-02-05T17:22:14.579Z,99.30
2019-02-05T17:24:47.671Z,98.80
2019-02-05T17:27:18.816Z,99.00
2019-02-05T17:29:50.184Z,99.10
2019-02-05T17:32:21.090Z,99.20
2019-02-05T17:34:51.581Z,99.30
2019-02-05T17:37:22.050Z,99.40
2019-02-05T17:39:53.116Z,99.40
2019-02-05T17:42:24.234Z,99.40
2019-02-05T17:44:54.753Z,99.40
2019-02-05T17:47:25.236Z,99.60
2019-02-05T17:49:55.741Z,99.50
2019-02-05T17:52:26.240Z,99.60
2019-02-05T17:54:58.232Z,99.70
2019-02-05T17:57:29.395Z,99.90
2019-02-05T17:59:59.858Z,99.90
2019-02-05T18:02:30.354Z,99.90
2019-02-05T18:05:00.820Z,99.90
2019-02-05T18:07:31.303Z,99.90
2019-02-05T18:10:01.778Z,99.90
2019-02-05T18:12:32.741Z,99.90
2019-02-05T18:15:05.887Z,99.90
2019-02-05T18:17:36.348Z,99.90
2019-02-05T18:20:09.742Z,99.90
2019-02-05T18:22:40.212Z,99.90
2019-02-05T18:25:17.683Z,99.90
2019-02-05T18:27:48.348Z,99.90
2019-02-05T18:30:32.386Z,99.90
2019-02-05T18:33:05.531Z,99.90
2019-02-05T18:35:36.645Z,99.90
2019-02-05T18:38:15.085Z,99.90
2019-02-05T18:40:45.653Z,99.90
2019-02-05T18:43:16.683Z,99.90
2019-02-05T18:45:47.136Z,99.90
2019-02-05T18:48:17.693Z,99.90
2019-02-05T18:50:48.234Z,99.90
2019-02-05T18:53:20.937Z,99.90
2019-02-05T18:55:51.430Z,99.90
2019-02-05T18:58:26.538Z,99.90
2019-02-05T19:00:57.383Z,99.90
2019-02-05T19:03:27.892Z,99.90
2019-02-05T19:05:58.354Z,99.90
2019-02-05T19:08:28.875Z,99.90
2019-02-05T19:10:59.384Z,99.90
2019-02-05T19:13:30.365Z,99.90
2019-02-05T19:16:00.856Z,99.90
2019-02-05T19:18:31.392Z,99.90
2019-02-05T19:21:01.896Z,99.90
2019-02-05T19:23:32.359Z,99.90
2019-02-05T19:26:04.488Z,99.90
2019-02-05T19:28:35.048Z,99.90
2019-02-05T19:31:19.308Z,99.90
2019-02-05T19:33:49.762Z,99.90
2019-02-05T19:36:21.832Z,99.90
2019-02-05T19:38:52.311Z,99.90
2019-02-05T19:41:23.764Z,99.90
2019-02-05T19:43:54.261Z,99.90
2019-02-05T19:46:45.085Z,99.90
2019-02-05T19:49:22.705Z,99.90
2019-02-05T19:51:53.173Z,99.90
2019-02-05T19:54:24.027Z,99.90
2019-02-05T19:56:54.597Z,99.90
2019-02-05T19:59:27.740Z,99.90
2019-02-05T20:01:58.303Z,99.90
2019-02-05T20:04:28.842Z,99.90
2019-02-05T20:07:00.315Z,99.90
2019-02-05T20:09:30.804Z,99.90
2019-02-05T20:12:01.549Z,99.90
2019-02-05T20:14:32.006Z,99.90
2019-02-05T20:17:02.667Z,99.90
2019-02-05T20:19:33.270Z,99.90
2019-02-05T20:22:03.767Z,99.90
2019-02-05T20:24:34.308Z,99.90
2019-02-05T20:27:05.273Z,99.90
2019-02-05T20:29:35.804Z,99.90
2019-02-05T20:32:06.885Z,99.90
2019-02-05T20:34:37.367Z,99.90
2019-02-05T20:37:07.936Z,99.90
2019-02-05T20:39:39.961Z,99.90
2019-02-05T20:42:10.435Z,99.90
2019-02-05T20:44:42.501Z,99.90
2019-02-05T20:47:13.010Z,99.90
2019-02-05T20:49:43.521Z,99.90
2019-02-05T20:52:13.996Z,99.90
2019-02-05T20:54:44.501Z,99.90
2019-02-05T20:57:15.000Z,99.90
2019-02-05T20:59:46.150Z,99.90
2019-02-05T21:02:16.829Z,99.90
2019-02-05T21:04:48.696Z,99.90
2019-02-05T21:07:20.919Z,99.90
2019-02-05T21:09:51.431Z,99.90
2019-02-05T21:12:21.891Z,99.90
2019-02-05T21:14:52.531Z,99.90
2019-02-05T21:17:22.995Z,99.90
2019-02-05T21:19:53.523Z,99.90
2019-02-05T21:22:23.988Z,99.90
2019-02-05T21:24:54.485Z,99.90
2019-02-05T21:27:24.961Z,99.90
2019-02-05T21:29:55.730Z,99.90
2019-02-05T21:32:29.032Z,99.90
2019-02-05T21:35:01.812Z,99.90
2019-02-05T21:37:32.502Z,99.90
2019-02-05T21:40:03.150Z,99.90
2019-02-05T21:42:37.278Z,99.90
2019-02-05T21:45:12.615Z,99.90
2019-02-05T21:47:44.670Z,99.90
2019-02-05T21:50:19.594Z,99.90
2019-02-05T21:52:50.413Z,99.90
2019-02-05T21:55:23.600Z,99.90
2019-02-05T21:57:55.731Z,99.90
2019-02-05T22:00:34.562Z,99.90
2019-02-05T22:03:07.041Z,99.90
2019-02-05T22:05:39.387Z,99.90
2019-02-05T22:08:10.721Z,99.90
2019-02-05T22:10:41.325Z,99.90
2019-02-05T22:13:11.843Z,99.90
2019-02-05T22:15:42.312Z,99.90
2019-02-05T22:18:12.973Z,99.90
2019-02-05T22:20:43.445Z,99.90
2019-02-05T22:23:14.336Z,99.90
2019-02-05T22:25:44.868Z,99.90
2019-02-05T22:28:15.345Z,99.90
2019-02-05T22:30:46.221Z,99.90
2019-02-05T22:33:16.694Z,99.90
2019-02-05T22:35:47.194Z,99.90
2019-02-05T22:38:17.663Z,99.90
2019-02-05T22:40:49.756Z,99.90
2019-02-05T22:43:22.048Z,99.90
2019-02-05T22:45:52.526Z,99.90
2019-02-05T22:48:23.022Z,99.90
2019-02-05T22:50:53.498Z,99.90
2019-02-05T22:53:24.578Z,99.90
2019-02-05T22:55:55.035Z,99.90
2019-02-05T22:58:25.714Z,99.90
2019-02-05T23:01:12.979Z,99.90
2019-02-05T23:03:48.020Z,99.90
2019-02-05T23:06:35.759Z,99.90
2019-02-05T23:09:29.052Z,99.90
2019-02-05T23:12:04.248Z,99.90
2019-02-05T23:14:34.749Z,99.90
2019-02-05T23:17:05.763Z,99.90
2019-02-05T23:19:36.339Z,99.90
2019-02-05T23:22:07.146Z,99.90
2019-02-05T23:24:38.550Z,99.90
2019-02-05T23:27:09.023Z,99.90
2019-02-05T23:29:39.597Z,99.90
2019-02-05T23:32:10.138Z,99.90
2019-02-05T23:34:40.710Z,99.90
2019-02-05T23:37:11.194Z,99.90
2019-02-05T23:39:41.767Z,99.90
2019-02-05T23:42:13.047Z,99.90
2019-02-05T23:44:44.450Z,99.90
2019-02-05T23:47:15.420Z,99.90
2019-02-05T23:49:45.918Z,99.90
2019-02-05T23:52:16.456Z,99.90
2019-02-05T23:54:46.967Z,99.90
2019-02-05T23:57:17.467Z,99.90
2019-02-05T23:59:47.966Z,99.90
